createdAt,value
2022-10-09T00:01:29.430Z,20.05
2022-10-09T00:03:56.973Z,15.75
2022-10-09T00:06:27.203Z,19.25
2022-10-09T00:08:53.679Z,18.80
2022-10-09T00:11:23.684Z,16.75
2022-10-09T00:13:51.396Z,18.58
2022-10-09T00:16:19.125Z,18.48
2022-10-09T00:18:46.783Z,18.65
2022-10-09T00:21:27.654Z,18.48
2022-10-09T00:23:56.838Z,20.35
2022-10-09T00:26:24.526Z,16.17
2022-10-09T00:28:51.063Z,19.25
2022-10-09T00:31:18.295Z,21.52
2022-10-09T00:33:45.230Z,17.63
2022-10-09T00:36:14.821Z,20.15
2022-10-09T00:38:41.282Z,19.80
2022-10-09T00:41:08.694Z,17.30
2022-10-09T00:43:41.289Z,17.42
2022-10-09T00:46:16.806Z,18.42
2022-10-09T00:48:43.540Z,18.13
2022-10-09T00:51:10.127Z,18.65
2022-10-09T00:53:36.604Z,18.35
2022-10-09T00:56:03.137Z,18.83
2022-10-09T00:58:29.738Z,17.83
2022-10-09T01:00:56.202Z,18.13
2022-10-09T01:03:22.633Z,17.73
2022-10-09T01:05:51.738Z,15.70
2022-10-09T01:08:23.632Z,17.58
2022-10-09T01:11:02.064Z,18.75
2022-10-09T01:13:36.042Z,18.38
2022-10-09T01:16:11.786Z,19.40
2022-10-09T01:18:46.942Z,17.35
2022-10-09T01:21:37.257Z,18.75
2022-10-09T01:24:10.999Z,18.05
2022-10-09T01:26:56.189Z,17.05
2022-10-09T01:29:26.921Z,25.92
2022-10-09T01:31:54.819Z,16.05
2022-10-09T01:34:23.198Z,19.05
2022-10-09T01:36:51.771Z,20.25
2022-10-09T01:39:23.023Z,21.70
2022-10-09T01:41:52.082Z,18.48
2022-10-09T01:44:29.902Z,18.90
2022-10-09T01:46:57.273Z,17.10
2022-10-09T01:49:29.544Z,21.95
2022-10-09T01:52:14.214Z,17.98
2022-10-09T01:54:52.893Z,16.13
2022-10-09T01:57:37.073Z,22.40
2022-10-09T02:00:08.425Z,17.75
2022-10-09T02:02:36.429Z,19.88
2022-10-09T02:05:03.367Z,19.75
2022-10-09T02:07:32.207Z,19.90
2022-10-09T02:10:01.757Z,18.92
2022-10-09T02:12:31.670Z,18.98
2022-10-09T02:14:58.235Z,18.63
2022-10-09T02:17:29.381Z,25.05
2022-10-09T02:20:03.306Z,20.05
2022-10-09T02:22:31.474Z,17.77
2022-10-09T02:25:01.436Z,18.98
2022-10-09T02:27:28.556Z,21.65
2022-10-09T02:29:55.236Z,17.92
2022-10-09T02:32:21.898Z,17.20
2022-10-09T02:34:48.334Z,19.60
2022-10-09T02:37:14.975Z,20.25
2022-10-09T02:39:43.095Z,21.50
2022-10-09T02:42:09.625Z,16.65
2022-10-09T02:44:36.361Z,22.00
2022-10-09T02:47:03.093Z,19.23
2022-10-09T02:49:29.490Z,22.63
2022-10-09T02:51:55.903Z,18.60
2022-10-09T02:54:22.389Z,26.20
2022-10-09T02:56:48.819Z,20.13
2022-10-09T02:59:15.251Z,21.60
2022-10-09T03:01:41.755Z,18.05
2022-10-09T03:04:08.313Z,18.65
2022-10-09T03:06:35.006Z,20.42
2022-10-09T03:09:01.807Z,18.73
2022-10-09T03:11:28.260Z,20.17
2022-10-09T03:13:54.688Z,17.00
2022-10-09T03:16:23.401Z,22.20
2022-10-09T03:18:51.436Z,20.92
2022-10-09T03:21:24.148Z,18.13
2022-10-09T03:23:52.279Z,19.60
2022-10-09T03:26:21.459Z,18.65
2022-10-09T03:28:50.327Z,23.27
2022-10-09T03:31:46.481Z,20.33
2022-10-09T03:34:05.394Z,20.05
2022-10-09T03:36:31.804Z,18.17
2022-10-09T03:38:58.183Z,18.30
2022-10-09T03:41:24.586Z,18.55
2022-10-09T03:43:51.056Z,21.38
2022-10-09T03:46:17.519Z,19.70
2022-10-09T03:48:43.998Z,17.45
2022-10-09T03:51:10.388Z,17.58
2022-10-09T03:53:36.968Z,19.15
2022-10-09T03:56:03.523Z,18.52
2022-10-09T03:58:29.957Z,19.35
2022-10-09T04:00:56.490Z,20.10
2022-10-09T04:03:23.076Z,18.73
2022-10-09T04:05:49.583Z,19.73
2022-10-09T04:08:16.244Z,18.52
2022-10-09T04:10:42.680Z,17.80
2022-10-09T04:13:09.073Z,20.40
2022-10-09T04:15:36.638Z,18.98
2022-10-09T04:18:03.846Z,23.27
2022-10-09T04:20:30.306Z,23.08
2022-10-09T04:22:56.704Z,20.48
2022-10-09T04:25:23.177Z,20.98
2022-10-09T04:27:49.674Z,23.13
2022-10-09T04:30:16.225Z,18.75
2022-10-09T04:32:42.639Z,19.17
2022-10-09T04:35:09.153Z,23.23
2022-10-09T04:37:36.659Z,16.58
2022-10-09T04:40:03.700Z,16.08
2022-10-09T04:42:30.352Z,20.90
2022-10-09T04:44:56.787Z,19.92
2022-10-09T04:47:23.212Z,19.13
2022-10-09T04:49:49.932Z,18.20
2022-10-09T04:52:16.326Z,22.60
2022-10-09T04:54:42.833Z,18.08
2022-10-09T04:57:09.342Z,17.50
2022-10-09T04:59:35.782Z,21.25
2022-10-09T05:02:02.281Z,16.60
2022-10-09T05:04:28.884Z,23.80
2022-10-09T05:06:55.285Z,19.75
2022-10-09T05:09:21.682Z,19.60
2022-10-09T05:11:48.081Z,21.65
2022-10-09T05:14:14.594Z,23.80
2022-10-09T05:17:08.413Z,21.40
2022-10-09T05:19:27.534Z,17.42
2022-10-09T05:21:54.301Z,18.95
2022-10-09T05:24:21.117Z,19.00
2022-10-09T05:26:47.502Z,19.40
2022-10-09T05:29:13.964Z,21.40
2022-10-09T05:31:40.499Z,18.50
2022-10-09T05:34:06.981Z,22.77
2022-10-09T05:36:33.363Z,18.33
2022-10-09T05:39:01.172Z,22.42
2022-10-09T05:41:31.173Z,16.58
2022-10-09T05:44:01.769Z,20.27
2022-10-09T05:46:29.763Z,20.98
2022-10-09T05:48:58.654Z,18.55
2022-10-09T05:51:30.483Z,20.25
2022-10-09T05:53:57.837Z,20.08
2022-10-09T05:56:27.493Z,18.27
2022-10-09T05:58:59.269Z,21.52
2022-10-09T06:01:28.314Z,19.08
2022-10-09T06:03:57.048Z,20.08
2022-10-09T06:06:26.860Z,24.30
2022-10-09T06:08:54.027Z,18.38
2022-10-09T06:11:28.310Z,18.08
2022-10-09T06:13:56.118Z,20.00
2022-10-09T06:16:25.571Z,22.42
2022-10-09T06:18:53.180Z,21.55
2022-10-09T06:21:20.218Z,20.98
2022-10-09T06:23:52.029Z,21.42
2022-10-09T06:26:19.301Z,19.40
2022-10-09T06:28:46.050Z,19.60
2022-10-09T06:31:14.755Z,22.35
2022-10-09T06:33:43.093Z,18.23
2022-10-09T06:36:12.899Z,19.27
2022-10-09T06:38:39.959Z,20.33
2022-10-09T06:41:08.708Z,19.58
2022-10-09T06:43:35.407Z,23.35
2022-10-09T06:46:04.756Z,24.05
2022-10-09T06:48:32.584Z,18.17
2022-10-09T06:51:06.338Z,20.80
2022-10-09T06:53:37.826Z,21.17
2022-10-09T06:56:04.830Z,20.65
2022-10-09T06:58:32.020Z,19.85
2022-10-09T07:01:13.894Z,18.48
2022-10-09T07:03:42.735Z,19.80
2022-10-09T07:06:21.084Z,19.95
2022-10-09T07:08:50.200Z,23.30
2022-10-09T07:11:20.977Z,22.02
2022-10-09T07:13:48.859Z,24.88
2022-10-09T07:16:19.664Z,23.85
2022-10-09T07:18:46.163Z,19.63
2022-10-09T07:21:12.588Z,22.05
2022-10-09T07:23:39.039Z,24.38
2022-10-09T07:26:17.364Z,20.75
2022-10-09T07:28:44.697Z,22.80
2022-10-09T07:31:11.738Z,24.42
2022-10-09T07:33:38.747Z,20.02
2022-10-09T07:36:06.496Z,20.23
2022-10-09T07:38:33.071Z,21.05
2022-10-09T07:41:01.726Z,20.00
2022-10-09T07:43:28.247Z,24.90
2022-10-09T07:45:58.734Z,28.10
2022-10-09T07:48:25.294Z,21.42
2022-10-09T07:50:51.707Z,24.05
2022-10-09T07:53:18.221Z,21.15
2022-10-09T07:55:48.867Z,25.17
2022-10-09T07:58:16.640Z,22.77
2022-10-09T08:00:44.331Z,26.67
2022-10-09T08:03:11.142Z,22.52
2022-10-09T08:05:37.583Z,24.27
2022-10-09T08:08:04.097Z,22.33
2022-10-09T08:10:31.220Z,21.50
2022-10-09T08:12:57.677Z,21.98
2022-10-09T08:15:24.388Z,21.98
2022-10-09T08:17:54.771Z,20.05
2022-10-09T08:20:21.658Z,23.88
2022-10-09T08:22:48.483Z,22.13
2022-10-09T08:25:15.109Z,22.33
2022-10-09T08:27:41.524Z,22.17
2022-10-09T08:30:08.585Z,24.25
2022-10-09T08:32:35.007Z,22.20
2022-10-09T08:35:01.583Z,19.73
2022-10-09T08:37:27.986Z,23.60
2022-10-09T08:39:54.402Z,19.02
2022-10-09T08:42:32.327Z,20.50
2022-10-09T08:44:58.825Z,19.58
2022-10-09T08:47:28.325Z,15.50
2022-10-09T08:50:10.795Z,18.40
2022-10-09T08:53:02.322Z,16.50
2022-10-09T08:55:33.015Z,16.02
2022-10-09T08:58:05.133Z,13.55
2022-10-09T09:00:45.960Z,19.55
2022-10-09T09:03:44.795Z,19.20
2022-10-09T09:06:39.286Z,15.45
2022-10-09T09:09:40.343Z,20.48
2022-10-09T09:12:21.932Z,12.10
2022-10-09T09:15:25.621Z,15.95
2022-10-09T09:18:30.289Z,17.63
2022-10-09T09:21:10.614Z,15.40
2022-10-09T09:23:42.459Z,13.02
2022-10-09T09:26:21.595Z,14.70
2022-10-09T09:28:52.895Z,11.85
2022-10-09T09:31:30.284Z,9.30
2022-10-09T09:34:14.691Z,8.50
2022-10-09T09:36:54.065Z,12.40
2022-10-09T09:40:08.300Z,12.70
2022-10-09T09:42:10.944Z,15.50
2022-10-09T09:44:42.897Z,14.73
2022-10-09T09:47:15.955Z,9.40
2022-10-09T09:49:57.767Z,10.55
2022-10-09T09:52:28.356Z,9.52
2022-10-09T09:54:57.335Z,11.35
2022-10-09T09:57:37.264Z,10.55
2022-10-09T10:00:15.994Z,11.93
2022-10-09T10:02:42.566Z,9.63
2022-10-09T10:05:26.222Z,13.07
2022-10-09T10:07:53.274Z,10.80
2022-10-09T10:10:27.361Z,13.88
2022-10-09T10:13:00.200Z,9.68
2022-10-09T10:15:27.994Z,5.25
2022-10-09T10:17:57.301Z,12.88
2022-10-09T10:20:23.958Z,8.93
2022-10-09T10:22:53.068Z,13.93
2022-10-09T10:25:23.440Z,12.13
2022-10-09T10:27:55.445Z,9.52
2022-10-09T10:30:21.916Z,10.95
2022-10-09T10:33:17.626Z,16.58
2022-10-09T10:35:45.624Z,10.10
2022-10-09T10:38:39.437Z,11.90
2022-10-09T10:41:12.020Z,11.35
2022-10-09T10:43:43.595Z,13.82
2022-10-09T10:46:17.904Z,7.50
2022-10-09T10:48:47.240Z,4.95
2022-10-09T10:51:13.646Z,7.13
2022-10-09T10:53:58.319Z,8.27
2022-10-09T10:56:48.469Z,4.95
2022-10-09T10:59:46.013Z,8.68
2022-10-09T11:02:18.187Z,9.98
2022-10-09T11:05:22.997Z,9.57
2022-10-09T11:08:08.752Z,7.38
2022-10-09T11:10:55.569Z,7.75
2022-10-09T11:13:34.875Z,10.85
2022-10-09T11:16:21.992Z,10.20
2022-10-09T11:18:57.597Z,8.50
2022-10-09T11:21:42.835Z,5.03
2022-10-09T11:24:30.992Z,5.90
2022-10-09T11:27:17.497Z,10.63
2022-10-09T11:29:51.307Z,8.70
2022-10-09T11:32:28.511Z,9.30
2022-10-09T11:34:59.512Z,4.35
2022-10-09T11:37:30.917Z,7.20
2022-10-09T11:39:57.351Z,6.57
2022-10-09T11:42:26.280Z,5.95
2022-10-09T11:45:14.617Z,8.52
2022-10-09T11:48:02.901Z,4.70
2022-10-09T11:50:51.304Z,6.80
2022-10-09T11:53:39.843Z,9.85
2022-10-09T11:56:21.356Z,4.82
2022-10-09T11:59:07.529Z,5.75
2022-10-09T12:01:39.746Z,5.28
2022-10-09T12:04:37.363Z,4.75
2022-10-09T12:07:12.500Z,4.80
2022-10-09T12:09:44.541Z,8.00
2022-10-09T12:12:16.916Z,5.03
2022-10-09T12:14:46.756Z,6.88
2022-10-09T12:17:38.400Z,6.07
2022-10-09T12:20:18.262Z,5.07
2022-10-09T12:23:07.382Z,7.47
2022-10-09T12:25:45.622Z,5.00
2022-10-09T12:28:30.751Z,5.88
2022-10-09T12:31:01.053Z,7.85
2022-10-09T12:33:39.390Z,9.82
2022-10-09T12:36:22.186Z,7.65
2022-10-09T12:38:48.654Z,6.57
2022-10-09T12:41:21.875Z,7.53
2022-10-09T12:43:51.136Z,8.38
2022-10-09T12:46:39.165Z,3.90
2022-10-09T12:49:18.875Z,3.83
2022-10-09T12:51:53.841Z,5.25
2022-10-09T12:54:24.969Z,6.82
2022-10-09T12:56:53.372Z,6.20
2022-10-09T12:59:20.688Z,9.20
2022-10-09T13:01:48.780Z,5.45
2022-10-09T13:04:33.118Z,7.72
2022-10-09T13:07:05.647Z,3.60
2022-10-09T13:09:38.298Z,7.28
2022-10-09T13:12:09.882Z,6.35
2022-10-09T13:14:42.920Z,5.65
2022-10-09T13:17:33.491Z,6.05
2022-10-09T13:20:21.325Z,6.95
2022-10-09T13:22:55.375Z,6.25
2022-10-09T13:25:23.175Z,4.65
2022-10-09T13:27:49.745Z,7.20
2022-10-09T13:30:16.531Z,4.97
2022-10-09T13:32:42.961Z,8.20
2022-10-09T13:35:09.496Z,5.97
2022-10-09T13:37:35.950Z,7.80
2022-10-09T13:40:02.606Z,6.78
2022-10-09T13:42:39.468Z,4.45
2022-10-09T13:45:06.462Z,6.32
2022-10-09T13:47:33.182Z,7.90
2022-10-09T13:49:59.639Z,7.03
2022-10-09T13:52:26.164Z,7.47
2022-10-09T13:54:52.617Z,6.85
2022-10-09T13:57:19.175Z,5.82
2022-10-09T13:59:45.665Z,4.88
2022-10-09T14:02:12.586Z,5.00
2022-10-09T14:04:39.318Z,4.50
2022-10-09T14:07:05.739Z,8.88
2022-10-09T14:09:32.180Z,5.88
2022-10-09T14:11:58.855Z,5.93
2022-10-09T14:14:25.271Z,4.70
2022-10-09T14:16:51.818Z,5.80
2022-10-09T14:19:18.399Z,3.83
2022-10-09T14:21:46.719Z,4.55
2022-10-09T14:24:14.380Z,4.63
2022-10-09T14:26:41.255Z,8.57
2022-10-09T14:29:07.781Z,4.60
2022-10-09T14:31:34.270Z,6.03
2022-10-09T14:34:00.803Z,7.18
2022-10-09T14:36:28.118Z,4.70
2022-10-09T14:38:55.300Z,6.50
2022-10-09T14:41:22.481Z,6.05
2022-10-09T14:43:56.080Z,6.35
2022-10-09T14:46:23.074Z,7.75
2022-10-09T14:48:50.017Z,4.80
2022-10-09T14:51:18.979Z,7.47
2022-10-09T14:53:46.303Z,5.05
2022-10-09T14:56:21.060Z,3.53
2022-10-09T14:58:48.183Z,6.43
2022-10-09T15:01:18.133Z,5.28
2022-10-09T15:03:46.034Z,6.53
2022-10-09T15:06:13.036Z,3.42
2022-10-09T15:08:42.118Z,5.15
2022-10-09T15:11:10.226Z,5.72
2022-10-09T15:13:37.051Z,4.10
2022-10-09T15:16:15.131Z,4.88
2022-10-09T15:18:41.896Z,3.10
2022-10-09T15:21:20.291Z,4.22
2022-10-09T15:23:47.295Z,5.65
2022-10-09T15:26:14.155Z,4.13
2022-10-09T15:28:42.351Z,8.82
2022-10-09T15:31:36.701Z,7.18
2022-10-09T15:34:04.748Z,3.03
2022-10-09T15:36:34.386Z,4.85
2022-10-09T15:39:05.478Z,2.38
2022-10-09T15:41:34.539Z,7.32
2022-10-09T15:44:04.122Z,3.45
2022-10-09T15:46:31.345Z,4.20
2022-10-09T15:48:58.275Z,5.82
2022-10-09T15:51:25.558Z,5.28
2022-10-09T15:53:52.592Z,4.18
2022-10-09T15:56:24.656Z,4.57
2022-10-09T15:58:52.895Z,4.32
2022-10-09T16:01:20.244Z,6.50
2022-10-09T16:03:46.764Z,7.25
2022-10-09T16:06:20.990Z,6.40
2022-10-09T16:08:48.002Z,5.85
2022-10-09T16:11:19.155Z,4.35
2022-10-09T16:13:48.555Z,5.18
2022-10-09T16:16:20.852Z,5.97
2022-10-09T16:18:47.604Z,4.72
2022-10-09T16:21:19.876Z,9.07
2022-10-09T16:23:46.861Z,8.95
2022-10-09T16:26:16.824Z,6.13
2022-10-09T16:28:44.112Z,8.68
2022-10-09T16:31:21.997Z,9.98
2022-10-09T16:33:48.609Z,7.15
2022-10-09T16:36:15.395Z,9.57
2022-10-09T16:38:42.193Z,7.25
2022-10-09T16:41:11.832Z,7.07
2022-10-09T16:43:39.432Z,6.30
2022-10-09T16:46:16.950Z,9.40
2022-10-09T16:48:43.461Z,9.50
2022-10-09T16:51:11.980Z,7.82
2022-10-09T16:53:38.488Z,8.38
2022-10-09T16:56:12.325Z,8.13
2022-10-09T16:58:40.035Z,11.07
2022-10-09T17:01:09.930Z,9.93
2022-10-09T17:03:40.177Z,9.13
2022-10-09T17:06:12.724Z,6.43
2022-10-09T17:08:39.264Z,8.77
2022-10-09T17:11:10.430Z,10.90
2022-10-09T17:13:37.528Z,11.60
2022-10-09T17:16:08.612Z,11.48
2022-10-09T17:18:36.546Z,9.20
2022-10-09T17:21:08.054Z,11.45
2022-10-09T17:23:36.046Z,11.23
2022-10-09T17:26:16.947Z,9.68
2022-10-09T17:28:44.269Z,11.13
2022-10-09T17:31:14.266Z,21.77
2022-10-09T17:33:42.893Z,21.02
2022-10-09T17:36:10.222Z,37.75
2022-10-09T17:38:37.300Z,25.77
2022-10-09T17:41:08.057Z,38.30
2022-10-09T17:43:34.699Z,26.63
2022-10-09T17:46:01.587Z,24.02
2022-10-09T17:48:29.118Z,20.63
2022-10-09T17:50:57.789Z,13.75
2022-10-09T17:53:25.307Z,12.60
2022-10-09T17:55:53.578Z,22.33
2022-10-09T17:58:21.352Z,27.75
2022-10-09T18:00:48.475Z,39.85
2022-10-09T18:03:16.255Z,24.17
2022-10-09T18:05:45.435Z,19.05
2022-10-09T18:08:12.975Z,19.98
2022-10-09T18:10:39.564Z,11.25
2022-10-09T18:13:09.886Z,13.82
2022-10-09T18:15:37.716Z,16.42
2022-10-09T18:18:04.780Z,18.42
2022-10-09T18:20:33.196Z,19.88
2022-10-09T18:22:59.646Z,16.88
2022-10-09T18:25:26.161Z,14.23
2022-10-09T18:27:52.881Z,12.48
2022-10-09T18:30:20.639Z,14.77
2022-10-09T18:32:48.374Z,13.60
2022-10-09T18:35:15.444Z,10.48
2022-10-09T18:37:41.900Z,15.90
2022-10-09T18:40:09.015Z,12.55
2022-10-09T18:42:35.928Z,12.20
2022-10-09T18:45:03.135Z,14.85
2022-10-09T18:47:33.349Z,14.18
2022-10-09T18:50:02.683Z,12.25
2022-10-09T18:52:30.158Z,16.38
2022-10-09T18:54:58.399Z,15.82
2022-10-09T18:57:26.404Z,13.75
2022-10-09T18:59:54.337Z,16.27
2022-10-09T19:02:25.966Z,13.38
2022-10-09T19:04:56.386Z,11.23
2022-10-09T19:07:22.825Z,11.50
2022-10-09T19:09:53.569Z,10.38
2022-10-09T19:12:21.415Z,13.15
2022-10-09T19:14:47.890Z,12.02
2022-10-09T19:17:14.446Z,10.65
2022-10-09T19:19:41.012Z,11.60
2022-10-09T19:22:10.607Z,10.32
2022-10-09T19:24:39.312Z,10.60
2022-10-09T19:27:05.739Z,11.43
2022-10-09T19:29:32.396Z,13.32
2022-10-09T19:31:58.855Z,12.13
2022-10-09T19:34:25.325Z,17.17
2022-10-09T19:36:51.877Z,16.13
2022-10-09T19:39:19.416Z,20.58
2022-10-09T19:41:48.596Z,21.63
2022-10-09T19:44:15.214Z,19.10
2022-10-09T19:46:41.726Z,22.35
2022-10-09T19:49:09.189Z,13.43
2022-10-09T19:51:36.629Z,13.35
2022-10-09T19:54:05.218Z,16.13
2022-10-09T19:56:33.981Z,15.15
2022-10-09T19:59:02.534Z,19.52
2022-10-09T20:01:30.075Z,13.27
2022-10-09T20:03:58.443Z,13.40
2022-10-09T20:06:25.611Z,12.15
2022-10-09T20:08:52.177Z,15.63
2022-10-09T20:11:20.433Z,12.02
2022-10-09T20:13:50.957Z,16.58
2022-10-09T20:16:19.998Z,13.60
2022-10-09T20:18:46.442Z,13.73
2022-10-09T20:21:15.700Z,20.80
2022-10-09T20:23:44.163Z,19.33
2022-10-09T20:26:16.468Z,21.75
2022-10-09T20:28:43.961Z,18.25
2022-10-09T20:31:17.939Z,15.98
2022-10-09T20:33:45.907Z,16.42
2022-10-09T20:36:22.803Z,14.70
2022-10-09T20:38:49.601Z,24.33
2022-10-09T20:41:16.205Z,23.60
2022-10-09T20:43:42.667Z,20.92
2022-10-09T20:46:14.144Z,21.10
2022-10-09T20:48:44.473Z,16.33
2022-10-09T20:51:10.962Z,14.35
2022-10-09T20:53:37.483Z,16.58
2022-10-09T20:56:06.662Z,18.25
2022-10-09T20:58:34.635Z,15.65
2022-10-09T21:01:05.889Z,16.05
2022-10-09T21:03:33.032Z,14.73
2022-10-09T21:06:03.155Z,14.45
2022-10-09T21:08:29.827Z,16.10
2022-10-09T21:10:56.333Z,15.20
2022-10-09T21:13:22.818Z,17.25
2022-10-09T21:15:50.195Z,18.23
2022-10-09T21:18:18.714Z,16.98
2022-10-09T21:20:47.115Z,18.50
2022-10-09T21:23:15.505Z,22.42
2022-10-09T21:25:49.747Z,24.55
2022-10-09T21:28:17.824Z,22.65
2022-10-09T21:30:44.496Z,18.83
2022-10-09T21:33:11.027Z,21.13
2022-10-09T21:35:42.839Z,18.20
2022-10-09T21:38:12.995Z,28.48
2022-10-09T21:40:40.061Z,25.08
2022-10-09T21:43:06.980Z,25.13
2022-10-09T21:45:33.645Z,23.73
2022-10-09T21:48:00.186Z,19.80
2022-10-09T21:50:26.772Z,26.52
2022-10-09T21:52:53.431Z,25.60
2022-10-09T21:55:20.227Z,26.38
2022-10-09T21:57:46.787Z,22.55
2022-10-09T22:00:13.411Z,27.02
2022-10-09T22:02:39.861Z,26.65
2022-10-09T22:05:07.913Z,16.38
2022-10-09T22:07:34.569Z,18.63
2022-10-09T22:10:00.986Z,16.35
2022-10-09T22:12:27.524Z,20.75
2022-10-09T22:14:55.264Z,22.52
2022-10-09T22:17:21.723Z,26.20
2022-10-09T22:19:48.304Z,25.40
2022-10-09T22:22:14.761Z,23.98
2022-10-09T22:24:41.202Z,18.90
2022-10-09T22:27:07.649Z,22.35
2022-10-09T22:29:34.607Z,12.55
2022-10-09T22:32:01.011Z,12.98
2022-10-09T22:34:27.589Z,14.95
2022-10-09T22:36:54.001Z,13.68
2022-10-09T22:39:20.426Z,14.02
2022-10-09T22:41:46.828Z,12.80
2022-10-09T22:44:13.283Z,13.18
2022-10-09T22:46:41.696Z,12.98
2022-10-09T22:49:11.747Z,16.60
2022-10-09T22:51:38.178Z,13.85
2022-10-09T22:54:05.455Z,18.95
2022-10-09T22:56:39.022Z,12.73
2022-10-09T22:59:07.277Z,13.02
2022-10-09T23:01:35.560Z,13.82
2022-10-09T23:04:05.370Z,15.98
2022-10-09T23:06:31.791Z,13.40
2022-10-09T23:08:59.049Z,14.52
2022-10-09T23:11:26.387Z,16.20
2022-10-09T23:13:55.004Z,14.18
2022-10-09T23:16:21.998Z,16.65
2022-10-09T23:18:48.742Z,14.00
2022-10-09T23:21:17.585Z,14.25
2022-10-09T23:23:45.056Z,16.27
2022-10-09T23:26:15.171Z,17.15
2022-10-09T23:28:42.391Z,12.93
2022-10-09T23:31:10.258Z,12.85
2022-10-09T23:33:39.483Z,17.08
2022-10-09T23:36:07.167Z,14.50
2022-10-09T23:38:34.133Z,16.83
2022-10-09T23:41:07.093Z,16.40
2022-10-09T23:43:36.146Z,14.05
2022-10-09T23:46:04.626Z,17.27
2022-10-09T23:48:31.209Z,13.50
2022-10-09T23:50:57.916Z,11.02
2022-10-09T23:53:26.137Z,17.90
2022-10-09T23:55:53.876Z,18.80
2022-10-09T23:58:21.232Z,16.17
